Terminal Aerodrome Forecast
Issued by NWS

Home | Current Version | Previous Version | Text Only | Print | Product List | Glossary On
Versions: 1 2 3 4 5 6 7 8 9 10 11 12 13
000
FTUS42 TJSJ 011700 RRA
TAFJBQ
TAF
TJBQ 011739Z 0118/0218 07012KT P6SM VCSH FEW028 SCT040
     FM011930 VRB12KT P6SM VCTS FEW025CB BKN040
     FM012230 10008KT P6SM FEW030 SCT050
     FM020300 00000KT P6SM SKC
     FM021450 07011KT P6SM FEW025 SCT040=

USA.gov is the U.S. government's official web portal to all federal, state and local government web resources and services.